Van Buren, OH (45889)

8:17 AM EDT on August 04, 2015 (GMT -0400)
SheeksVanBurenOhio | | Change Station
CLOSE
Current Station
Personal Weather Station
Location: Van Buren, OH
Elevation: 764 ft
Nearby Weather Stations

Elev 764 ft 41.14 °N, 83.65 °W | Updated 47 seconds ago

Clear
Clear
66.1 °F
Feels Like 66.1 °F
N
2.2
Wind Variable Wind from SSW
Gusts 3.6 mph

Today
High -- | Low -- °F
--% Chance of Precip.
Yesterday
High -- | Low -- °F
Precip. -- in
6:32 AM 8:47 PM
Waning Gibbous, 78% visible
Pressure 29.94 in
Visibility 10.0 miles
Clouds Clear
Dew Point 56 °F
Humidity 70%
Rainfall 0.00 in
Snow Depth Not available.
UV 1 out of 12
Pollen 7.60 out of 12
Air Quality Not available.
Flu Activity Not available.
METAR KFDY 041153Z AUTO 20003KT 10SM CLR 16/13 A2996 RMK AO2 SLP136 T01610133 10161 20133 53014

More Conditions Fewer Conditions

Pressure 29.94 in
Visibility 10.0 miles
Clouds Clear
Dew Point 56 °F
Humidity 70%
Rainfall 0.00 in
Snow Depth Not available.
UV 1 out of 12
Pollen 7.60 out of 12
Air Quality Not available.
Flu Activity Not available.
METAR KFDY 041153Z AUTO 20003KT 10SM CLR 16/13 A2996 RMK AO2 SLP136 T01610133 10161 20133 53014

More Conditions Fewer Conditions

10-Day Weather Forecast

×

Almanac

Astronomy

Aug. 04, 2015 Rise Set
Actual Time
Civil Twilight
Nautical Twilight
Astronomical Twilight
Moon
Length of Visible Light
Length of Day
Tomorrow will be .
, % of the Moon is Illuminated

Today's Extremes

State Highs State Lows

Community

WunderPhotos

Upload Photos

1,843,907 photos uploaded!

WunderBlogs® & News

Nearby

Air Quality

  Air Quality AQ Index Pollutant
Not available.

Snow Depth

Station Depth Elevation

Earthquake Activity

City Distance Mag. Time & Date
Minimum magnitude displayed is 2.5.

Coastal Water Temperatures

Place Temperature

Stations

Nearby Weather Stations

Station Location Temp. Windchill Dew Point Humidity Wind Precip. Elev Updated Type